CYTH

Thompson Airport

Thompson, Manitoba, Canada
METAR CYTH 100700Z 34006KT 15SM SKC M15/M17 A2988 RMK FROIN SLP144
Observed Flight Rules
Dec-10 @ 07:00 UTC (35 minutes ago) Visual Flight Rules
Wind Visibility Clouds
340° at 6 knots 15 miles
  • Clear skies
Temperatures Readings
Current -15°C / 5°F
Dewpoint -17°C / 1°F
Humidity 85%
Altimeter 29.88" Hg
Pressure 1014.4 hPa
Elevation 218
METAR CYTH 100700Z 34006KT 15SM SKC M15/M17 A2988 RMK FROIN SLP144
Observed Flight Rules
Dec-10 @ 07:00 UTC
(35 minutes ago)
VFR
Wind Visibility
340° at 6 knots 15 miles
Clouds
  • Clear skies
Temperature Dewpoint
-15°C / 5°F -17°C / 1°F
Humidity Altimeter Pressure
85% 29.88" Hg 1014.4 hPa